sensor_id;sensor_type;location;lat;lon;timestamp;P1;durP1;ratioP1;P2;durP2;ratioP2
68273;SDS011;55104;47.356;19.448;2024-02-26T00:00:39;12.00;;;4.70;;
68273;SDS011;55104;47.356;19.448;2024-02-26T00:03:42;17.20;;;5.43;;
68273;SDS011;55104;47.356;19.448;2024-02-26T00:06:46;12.10;;;5.43;;
68273;SDS011;55104;47.356;19.448;2024-02-26T00:09:50;8.63;;;3.20;;
68273;SDS011;55104;47.356;19.448;2024-02-26T00:12:52;8.32;;;3.50;;
68273;SDS011;55104;47.356;19.448;2024-02-26T00:15:54;6.27;;;2.63;;
68273;SDS011;55104;47.356;19.448;2024-02-26T00:18:56;8.48;;;3.03;;
68273;SDS011;55104;47.356;19.448;2024-02-26T00:21:59;7.30;;;2.85;;
68273;SDS011;55104;47.356;19.448;2024-02-26T00:25:01;8.68;;;2.90;;
68273;SDS011;55104;47.356;19.448;2024-02-26T00:28:04;7.20;;;2.83;;
68273;SDS011;55104;47.356;19.448;2024-02-26T00:31:07;7.30;;;3.05;;
68273;SDS011;55104;47.356;19.448;2024-02-26T00:34:09;8.73;;;2.97;;
68273;SDS011;55104;47.356;19.448;2024-02-26T00:37:12;9.02;;;3.38;;
68273;SDS011;55104;47.356;19.448;2024-02-26T00:40:14;8.05;;;3.40;;
68273;SDS011;55104;47.356;19.448;2024-02-26T00:43:16;6.28;;;2.53;;
68273;SDS011;55104;47.356;19.448;2024-02-26T00:46:18;7.47;;;3.63;;
68273;SDS011;55104;47.356;19.448;2024-02-26T00:49:20;10.37;;;3.40;;
68273;SDS011;55104;47.356;19.448;2024-02-26T00:52:23;12.90;;;2.97;;
68273;SDS011;55104;47.356;19.448;2024-02-26T00:55:25;8.15;;;2.92;;
68273;SDS011;55104;47.356;19.448;2024-02-26T00:58:27;6.45;;;2.33;;
68273;SDS011;55104;47.356;19.448;2024-02-26T01:01:29;8.63;;;2.90;;
68273;SDS011;55104;47.356;19.448;2024-02-26T01:04:31;6.80;;;2.22;;
68273;SDS011;55104;47.356;19.448;2024-02-26T01:07:35;7.70;;;2.83;;
68273;SDS011;55104;47.356;19.448;2024-02-26T01:10:38;6.53;;;2.55;;
68273;SDS011;55104;47.356;19.448;2024-02-26T01:13:40;6.90;;;2.67;;
68273;SDS011;55104;47.356;19.448;2024-02-26T01:16:43;7.03;;;2.55;;
68273;SDS011;55104;47.356;19.448;2024-02-26T01:19:45;5.70;;;2.13;;
68273;SDS011;55104;47.356;19.448;2024-02-26T01:22:47;8.35;;;2.78;;
68273;SDS011;55104;47.356;19.448;2024-02-26T01:25:49;5.97;;;2.03;;
68273;SDS011;55104;47.356;19.448;2024-02-26T01:28:52;6.72;;;2.72;;
68273;SDS011;55104;47.356;19.448;2024-02-26T01:31:54;5.07;;;2.30;;
68273;SDS011;55104;47.356;19.448;2024-02-26T01:34:56;9.67;;;3.03;;
68273;SDS011;55104;47.356;19.448;2024-02-26T01:37:59;11.05;;;2.83;;
68273;SDS011;55104;47.356;19.448;2024-02-26T01:41:01;8.68;;;2.30;;
68273;SDS011;55104;47.356;19.448;2024-02-26T01:44:04;6.10;;;2.53;;
68273;SDS011;55104;47.356;19.448;2024-02-26T01:47:07;7.27;;;2.97;;
68273;SDS011;55104;47.356;19.448;2024-02-26T01:50:13;6.32;;;2.05;;
68273;SDS011;55104;47.356;19.448;2024-02-26T01:53:16;8.95;;;2.38;;
68273;SDS011;55104;47.356;19.448;2024-02-26T01:56:18;5.75;;;2.17;;
68273;SDS011;55104;47.356;19.448;2024-02-26T01:59:22;4.55;;;1.67;;
68273;SDS011;55104;47.356;19.448;2024-02-26T02:02:24;4.05;;;1.00;;
68273;SDS011;55104;47.356;19.448;2024-02-26T02:05:27;4.72;;;1.30;;
68273;SDS011;55104;47.356;19.448;2024-02-26T02:08:30;9.00;;;2.23;;
68273;SDS011;55104;47.356;19.448;2024-02-26T02:11:33;5.38;;;1.65;;
68273;SDS011;55104;47.356;19.448;2024-02-26T02:14:36;6.78;;;2.00;;
68273;SDS011;55104;47.356;19.448;2024-02-26T02:17:38;8.40;;;2.42;;
68273;SDS011;55104;47.356;19.448;2024-02-26T02:20:40;7.60;;;2.90;;
68273;SDS011;55104;47.356;19.448;2024-02-26T02:23:42;6.22;;;1.67;;
68273;SDS011;55104;47.356;19.448;2024-02-26T02:26:48;5.68;;;2.00;;
68273;SDS011;55104;47.356;19.448;2024-02-26T02:29:50;10.98;;;2.80;;
68273;SDS011;55104;47.356;19.448;2024-02-26T02:32:53;6.22;;;2.38;;
68273;SDS011;55104;47.356;19.448;2024-02-26T02:35:55;7.78;;;2.88;;
68273;SDS011;55104;47.356;19.448;2024-02-26T02:38:57;6.18;;;2.63;;
68273;SDS011;55104;47.356;19.448;2024-02-26T02:42:00;5.93;;;2.30;;
68273;SDS011;55104;47.356;19.448;2024-02-26T02:45:02;7.35;;;2.53;;
68273;SDS011;55104;47.356;19.448;2024-02-26T02:48:04;9.02;;;3.28;;
68273;SDS011;55104;47.356;19.448;2024-02-26T02:51:07;10.73;;;3.63;;
68273;SDS011;55104;47.356;19.448;2024-02-26T02:54:09;10.77;;;4.07;;
68273;SDS011;55104;47.356;19.448;2024-02-26T02:57:11;8.68;;;3.75;;
68273;SDS011;55104;47.356;19.448;2024-02-26T03:00:15;10.30;;;4.10;;
68273;SDS011;55104;47.356;19.448;2024-02-26T03:03:17;10.70;;;4.00;;
68273;SDS011;55104;47.356;19.448;2024-02-26T03:06:20;10.57;;;4.53;;
68273;SDS011;55104;47.356;19.448;2024-02-26T03:09:23;7.63;;;3.20;;
68273;SDS011;55104;47.356;19.448;2024-02-26T03:12:25;9.00;;;2.72;;
68273;SDS011;55104;47.356;19.448;2024-02-26T03:15:29;12.27;;;4.65;;
68273;SDS011;55104;47.356;19.448;2024-02-26T03:18:32;10.55;;;3.05;;
68273;SDS011;55104;47.356;19.448;2024-02-26T03:21:34;8.32;;;3.78;;
68273;SDS011;55104;47.356;19.448;2024-02-26T03:24:36;9.55;;;3.13;;
68273;SDS011;55104;47.356;19.448;2024-02-26T03:27:39;7.47;;;3.30;;
68273;SDS011;55104;47.356;19.448;2024-02-26T03:30:41;10.55;;;3.88;;
68273;SDS011;55104;47.356;19.448;2024-02-26T03:33:43;8.43;;;3.20;;
68273;SDS011;55104;47.356;19.448;2024-02-26T03:36:45;8.38;;;3.75;;
68273;SDS011;55104;47.356;19.448;2024-02-26T03:39:48;8.90;;;4.30;;
68273;SDS011;55104;47.356;19.448;2024-02-26T03:42:50;10.55;;;3.35;;
68273;SDS011;55104;47.356;19.448;2024-02-26T03:45:54;7.53;;;2.97;;
68273;SDS011;55104;47.356;19.448;2024-02-26T03:48:56;8.13;;;3.58;;
68273;SDS011;55104;47.356;19.448;2024-02-26T03:51:59;5.68;;;2.95;;
68273;SDS011;55104;47.356;19.448;2024-02-26T03:55:01;10.48;;;3.20;;
68273;SDS011;55104;47.356;19.448;2024-02-26T03:58:03;7.35;;;3.00;;
68273;SDS011;55104;47.356;19.448;2024-02-26T04:01:08;8.77;;;2.73;;
68273;SDS011;55104;47.356;19.448;2024-02-26T04:04:11;8.48;;;2.67;;
68273;SDS011;55104;47.356;19.448;2024-02-26T04:07:13;8.15;;;3.05;;
68273;SDS011;55104;47.356;19.448;2024-02-26T04:10:15;7.10;;;2.58;;
68273;SDS011;55104;47.356;19.448;2024-02-26T04:13:18;8.20;;;3.00;;
68273;SDS011;55104;47.356;19.448;2024-02-26T04:16:20;7.65;;;2.85;;
68273;SDS011;55104;47.356;19.448;2024-02-26T04:19:22;5.65;;;2.28;;
68273;SDS011;55104;47.356;19.448;2024-02-26T04:22:24;6.53;;;2.13;;
68273;SDS011;55104;47.356;19.448;2024-02-26T04:25:27;8.68;;;2.78;;
68273;SDS011;55104;47.356;19.448;2024-02-26T04:28:30;7.82;;;2.33;;
68273;SDS011;55104;47.356;19.448;2024-02-26T04:31:32;11.40;;;2.78;;
68273;SDS011;55104;47.356;19.448;2024-02-26T04:34:34;5.07;;;1.50;;
68273;SDS011;55104;47.356;19.448;2024-02-26T04:37:37;6.00;;;2.38;;
68273;SDS011;55104;47.356;19.448;2024-02-26T04:40:39;4.80;;;1.20;;
68273;SDS011;55104;47.356;19.448;2024-02-26T04:43:41;8.00;;;2.87;;
68273;SDS011;55104;47.356;19.448;2024-02-26T04:46:44;8.00;;;2.47;;
68273;SDS011;55104;47.356;19.448;2024-02-26T04:49:46;7.65;;;2.20;;
68273;SDS011;55104;47.356;19.448;2024-02-26T04:52:48;7.95;;;1.77;;
68273;SDS011;55104;47.356;19.448;2024-02-26T04:55:51;6.70;;;1.60;;
68273;SDS011;55104;47.356;19.448;2024-02-26T04:58:53;6.10;;;2.03;;
68273;SDS011;55104;47.356;19.448;2024-02-26T05:01:56;5.50;;;1.67;;
68273;SDS011;55104;47.356;19.448;2024-02-26T05:04:58;6.35;;;2.42;;
68273;SDS011;55104;47.356;19.448;2024-02-26T05:08:00;9.18;;;2.45;;
68273;SDS011;55104;47.356;19.448;2024-02-26T05:11:04;9.57;;;2.85;;
68273;SDS011;55104;47.356;19.448;2024-02-26T05:14:07;7.40;;;3.17;;
68273;SDS011;55104;47.356;19.448;2024-02-26T05:17:10;8.53;;;2.90;;
68273;SDS011;55104;47.356;19.448;2024-02-26T05:20:12;8.68;;;4.10;;
68273;SDS011;55104;47.356;19.448;2024-02-26T05:23:15;9.15;;;3.65;;
68273;SDS011;55104;47.356;19.448;2024-02-26T05:26:21;13.02;;;4.00;;
68273;SDS011;55104;47.356;19.448;2024-02-26T05:29:23;8.87;;;3.03;;
68273;SDS011;55104;47.356;19.448;2024-02-26T05:32:26;7.20;;;3.17;;
68273;SDS011;55104;47.356;19.448;2024-02-26T05:35:28;8.70;;;3.50;;
68273;SDS011;55104;47.356;19.448;2024-02-26T05:38:30;9.95;;;3.95;;
68273;SDS011;55104;47.356;19.448;2024-02-26T05:41:33;12.88;;;3.20;;
68273;SDS011;55104;47.356;19.448;2024-02-26T05:44:36;9.77;;;4.82;;
68273;SDS011;55104;47.356;19.448;2024-02-26T05:47:38;6.45;;;3.40;;
68273;SDS011;55104;47.356;19.448;2024-02-26T05:50:47;9.97;;;4.03;;
68273;SDS011;55104;47.356;19.448;2024-02-26T05:53:49;10.80;;;4.55;;
68273;SDS011;55104;47.356;19.448;2024-02-26T05:56:57;7.88;;;3.65;;
68273;SDS011;55104;47.356;19.448;2024-02-26T05:59:59;10.68;;;3.85;;
68273;SDS011;55104;47.356;19.448;2024-02-26T06:03:12;10.43;;;3.67;;
68273;SDS011;55104;47.356;19.448;2024-02-26T06:06:14;11.95;;;4.90;;
68273;SDS011;55104;47.356;19.448;2024-02-26T06:09:17;10.57;;;3.97;;
68273;SDS011;55104;47.356;19.448;2024-02-26T06:12:20;11.90;;;4.28;;
68273;SDS011;55104;47.356;19.448;2024-02-26T06:15:23;14.60;;;5.38;;
68273;SDS011;55104;47.356;19.448;2024-02-26T06:18:28;9.60;;;3.80;;
68273;SDS011;55104;47.356;19.448;2024-02-26T06:21:32;9.65;;;3.90;;
68273;SDS011;55104;47.356;19.448;2024-02-26T06:24:35;12.43;;;5.70;;
68273;SDS011;55104;47.356;19.448;2024-02-26T06:27:37;9.65;;;4.10;;
68273;SDS011;55104;47.356;19.448;2024-02-26T06:30:40;11.40;;;5.32;;
68273;SDS011;55104;47.356;19.448;2024-02-26T06:33:42;14.00;;;5.78;;
68273;SDS011;55104;47.356;19.448;2024-02-26T06:36:45;10.98;;;4.07;;
68273;SDS011;55104;47.356;19.448;2024-02-26T06:39:47;13.00;;;4.43;;
68273;SDS011;55104;47.356;19.448;2024-02-26T06:42:49;14.93;;;5.10;;
68273;SDS011;55104;47.356;19.448;2024-02-26T06:45:52;12.97;;;4.87;;
68273;SDS011;55104;47.356;19.448;2024-02-26T06:48:54;15.55;;;6.30;;
68273;SDS011;55104;47.356;19.448;2024-02-26T06:51:56;12.13;;;5.97;;
68273;SDS011;55104;47.356;19.448;2024-02-26T06:54:59;10.02;;;4.45;;
68273;SDS011;55104;47.356;19.448;2024-02-26T06:58:01;10.53;;;4.80;;
68273;SDS011;55104;47.356;19.448;2024-02-26T07:01:03;12.23;;;4.88;;
68273;SDS011;55104;47.356;19.448;2024-02-26T07:04:06;13.57;;;5.18;;
68273;SDS011;55104;47.356;19.448;2024-02-26T07:07:08;11.10;;;4.72;;
68273;SDS011;55104;47.356;19.448;2024-02-26T07:10:11;12.27;;;5.27;;
68273;SDS011;55104;47.356;19.448;2024-02-26T07:13:14;14.27;;;5.28;;
68273;SDS011;55104;47.356;19.448;2024-02-26T07:16:16;14.73;;;6.10;;
68273;SDS011;55104;47.356;19.448;2024-02-26T07:19:20;12.85;;;4.82;;
68273;SDS011;55104;47.356;19.448;2024-02-26T07:22:22;15.67;;;6.40;;
68273;SDS011;55104;47.356;19.448;2024-02-26T07:25:26;13.77;;;5.97;;
68273;SDS011;55104;47.356;19.448;2024-02-26T07:28:28;12.13;;;4.85;;
68273;SDS011;55104;47.356;19.448;2024-02-26T07:31:30;11.85;;;5.35;;
68273;SDS011;55104;47.356;19.448;2024-02-26T07:34:32;13.57;;;6.37;;
68273;SDS011;55104;47.356;19.448;2024-02-26T07:37:35;14.93;;;6.80;;
68273;SDS011;55104;47.356;19.448;2024-02-26T07:40:37;18.23;;;8.95;;
68273;SDS011;55104;47.356;19.448;2024-02-26T07:43:53;15.70;;;8.85;;
68273;SDS011;55104;47.356;19.448;2024-02-26T07:46:56;17.50;;;8.17;;
68273;SDS011;55104;47.356;19.448;2024-02-26T07:49:58;12.52;;;5.88;;
68273;SDS011;55104;47.356;19.448;2024-02-26T07:53:00;10.88;;;5.88;;
68273;SDS011;55104;47.356;19.448;2024-02-26T07:56:03;12.02;;;5.63;;
68273;SDS011;55104;47.356;19.448;2024-02-26T07:59:06;13.50;;;5.37;;
68273;SDS011;55104;47.356;19.448;2024-02-26T08:02:08;10.50;;;4.75;;
68273;SDS011;55104;47.356;19.448;2024-02-26T08:05:10;14.45;;;6.35;;
68273;SDS011;55104;47.356;19.448;2024-02-26T08:08:13;13.40;;;6.00;;
68273;SDS011;55104;47.356;19.448;2024-02-26T08:11:15;13.60;;;6.37;;
68273;SDS011;55104;47.356;19.448;2024-02-26T08:14:17;12.80;;;6.00;;
68273;SDS011;55104;47.356;19.448;2024-02-26T08:17:20;12.02;;;5.38;;
68273;SDS011;55104;47.356;19.448;2024-02-26T08:20:22;13.88;;;6.65;;
68273;SDS011;55104;47.356;19.448;2024-02-26T08:23:24;12.50;;;5.33;;
68273;SDS011;55104;47.356;19.448;2024-02-26T08:26:28;15.68;;;7.18;;
68273;SDS011;55104;47.356;19.448;2024-02-26T08:29:30;13.55;;;5.95;;
68273;SDS011;55104;47.356;19.448;2024-02-26T08:32:32;19.08;;;8.07;;
68273;SDS011;55104;47.356;19.448;2024-02-26T08:35:34;14.10;;;5.55;;
68273;SDS011;55104;47.356;19.448;2024-02-26T08:38:36;23.00;;;7.15;;
68273;SDS011;55104;47.356;19.448;2024-02-26T08:41:39;13.98;;;6.20;;
68273;SDS011;55104;47.356;19.448;2024-02-26T08:44:41;14.27;;;5.82;;
68273;SDS011;55104;47.356;19.448;2024-02-26T08:47:44;15.38;;;7.00;;
68273;SDS011;55104;47.356;19.448;2024-02-26T08:50:47;16.90;;;7.23;;
68273;SDS011;55104;47.356;19.448;2024-02-26T08:53:50;16.10;;;8.27;;
68273;SDS011;55104;47.356;19.448;2024-02-26T08:56:53;13.07;;;6.82;;
68273;SDS011;55104;47.356;19.448;2024-02-26T08:59:55;12.40;;;6.15;;
68273;SDS011;55104;47.356;19.448;2024-02-26T09:02:57;15.32;;;7.45;;
68273;SDS011;55104;47.356;19.448;2024-02-26T09:06:03;14.63;;;6.97;;
68273;SDS011;55104;47.356;19.448;2024-02-26T09:09:06;17.33;;;7.40;;
68273;SDS011;55104;47.356;19.448;2024-02-26T09:12:08;17.70;;;8.88;;
68273;SDS011;55104;47.356;19.448;2024-02-26T09:15:11;14.48;;;7.47;;
68273;SDS011;55104;47.356;19.448;2024-02-26T09:18:13;14.83;;;7.40;;
68273;SDS011;55104;47.356;19.448;2024-02-26T09:21:17;14.70;;;6.68;;
68273;SDS011;55104;47.356;19.448;2024-02-26T09:24:26;18.85;;;7.07;;
68273;SDS011;55104;47.356;19.448;2024-02-26T09:27:29;15.00;;;6.72;;
68273;SDS011;55104;47.356;19.448;2024-02-26T09:30:32;22.65;;;7.28;;
68273;SDS011;55104;47.356;19.448;2024-02-26T09:33:35;22.23;;;7.33;;
68273;SDS011;55104;47.356;19.448;2024-02-26T09:36:38;15.45;;;7.43;;
68273;SDS011;55104;47.356;19.448;2024-02-26T09:39:40;14.02;;;6.28;;
68273;SDS011;55104;47.356;19.448;2024-02-26T09:42:43;14.10;;;6.40;;
68273;SDS011;55104;47.356;19.448;2024-02-26T09:45:46;13.77;;;6.22;;
68273;SDS011;55104;47.356;19.448;2024-02-26T09:48:49;18.17;;;6.87;;
68273;SDS011;55104;47.356;19.448;2024-02-26T09:51:52;18.92;;;8.20;;
68273;SDS011;55104;47.356;19.448;2024-02-26T09:54:58;14.05;;;6.13;;
68273;SDS011;55104;47.356;19.448;2024-02-26T09:58:01;12.80;;;5.65;;
68273;SDS011;55104;47.356;19.448;2024-02-26T10:01:06;12.43;;;5.97;;
68273;SDS011;55104;47.356;19.448;2024-02-26T10:04:13;12.73;;;6.37;;
68273;SDS011;55104;47.356;19.448;2024-02-26T10:07:16;15.77;;;6.45;;
68273;SDS011;55104;47.356;19.448;2024-02-26T10:10:19;14.82;;;7.05;;
68273;SDS011;55104;47.356;19.448;2024-02-26T10:13:21;13.55;;;5.80;;
68273;SDS011;55104;47.356;19.448;2024-02-26T10:16:25;12.50;;;5.78;;
68273;SDS011;55104;47.356;19.448;2024-02-26T10:19:28;11.70;;;5.67;;
68273;SDS011;55104;47.356;19.448;2024-02-26T10:22:33;11.18;;;5.82;;
68273;SDS011;55104;47.356;19.448;2024-02-26T10:25:35;13.25;;;6.43;;
68273;SDS011;55104;47.356;19.448;2024-02-26T10:28:37;17.77;;;6.53;;
68273;SDS011;55104;47.356;19.448;2024-02-26T10:31:42;12.85;;;6.32;;
68273;SDS011;55104;47.356;19.448;2024-02-26T10:34:44;13.40;;;5.40;;
68273;SDS011;55104;47.356;19.448;2024-02-26T10:37:46;11.98;;;5.15;;
68273;SDS011;55104;47.356;19.448;2024-02-26T10:40:49;12.02;;;5.38;;
68273;SDS011;55104;47.356;19.448;2024-02-26T10:43:52;15.88;;;6.00;;
68273;SDS011;55104;47.356;19.448;2024-02-26T10:46:54;11.77;;;5.32;;
68273;SDS011;55104;47.356;19.448;2024-02-26T10:49:57;12.30;;;5.00;;
68273;SDS011;55104;47.356;19.448;2024-02-26T10:53:00;17.42;;;6.60;;
68273;SDS011;55104;47.356;19.448;2024-02-26T10:56:04;10.40;;;4.93;;
68273;SDS011;55104;47.356;19.448;2024-02-26T10:59:07;13.18;;;5.60;;
68273;SDS011;55104;47.356;19.448;2024-02-26T11:02:12;13.75;;;5.50;;
68273;SDS011;55104;47.356;19.448;2024-02-26T11:05:15;12.50;;;6.27;;
68273;SDS011;55104;47.356;19.448;2024-02-26T11:08:19;14.38;;;6.15;;
68273;SDS011;55104;47.356;19.448;2024-02-26T11:11:25;11.43;;;6.53;;
68273;SDS011;55104;47.356;19.448;2024-02-26T11:14:29;16.50;;;5.63;;
68273;SDS011;55104;47.356;19.448;2024-02-26T11:17:32;10.18;;;5.47;;
68273;SDS011;55104;47.356;19.448;2024-02-26T11:20:38;13.73;;;5.80;;
68273;SDS011;55104;47.356;19.448;2024-02-26T11:23:42;17.88;;;5.90;;
68273;SDS011;55104;47.356;19.448;2024-02-26T11:26:47;11.35;;;5.30;;
68273;SDS011;55104;47.356;19.448;2024-02-26T11:29:52;12.35;;;6.05;;
68273;SDS011;55104;47.356;19.448;2024-02-26T11:32:56;13.10;;;5.18;;
68273;SDS011;55104;47.356;19.448;2024-02-26T11:36:00;10.50;;;5.00;;
68273;SDS011;55104;47.356;19.448;2024-02-26T11:39:03;12.05;;;4.88;;
68273;SDS011;55104;47.356;19.448;2024-02-26T11:42:06;17.23;;;5.22;;
68273;SDS011;55104;47.356;19.448;2024-02-26T11:48:51;10.10;;;5.05;;
68273;SDS011;55104;47.356;19.448;2024-02-26T11:51:57;11.67;;;5.37;;
68273;SDS011;55104;47.356;19.448;2024-02-26T11:55:03;10.75;;;5.38;;
68273;SDS011;55104;47.356;19.448;2024-02-26T11:58:06;12.10;;;3.95;;
68273;SDS011;55104;47.356;19.448;2024-02-26T12:04:38;13.73;;;4.72;;
68273;SDS011;55104;47.356;19.448;2024-02-26T12:07:44;11.17;;;4.37;;
68273;SDS011;55104;47.356;19.448;2024-02-26T12:10:50;12.45;;;5.45;;
68273;SDS011;55104;47.356;19.448;2024-02-26T12:13:52;21.63;;;5.32;;
68273;SDS011;55104;47.356;19.448;2024-02-26T12:16:55;11.73;;;4.78;;
68273;SDS011;55104;47.356;19.448;2024-02-26T12:20:10;11.60;;;5.05;;
68273;SDS011;55104;47.356;19.448;2024-02-26T12:23:16;12.30;;;5.70;;
68273;SDS011;55104;47.356;19.448;2024-02-26T12:26:21;15.40;;;5.65;;
68273;SDS011;55104;47.356;19.448;2024-02-26T12:29:24;17.45;;;6.28;;
68273;SDS011;55104;47.356;19.448;2024-02-26T12:32:26;11.73;;;5.88;;
68273;SDS011;55104;47.356;19.448;2024-02-26T12:35:28;17.00;;;5.88;;
68273;SDS011;55104;47.356;19.448;2024-02-26T12:38:34;12.80;;;5.70;;
68273;SDS011;55104;47.356;19.448;2024-02-26T12:41:38;14.80;;;6.88;;
68273;SDS011;55104;47.356;19.448;2024-02-26T12:44:41;11.73;;;5.72;;
68273;SDS011;55104;47.356;19.448;2024-02-26T12:47:44;11.27;;;5.63;;
68273;SDS011;55104;47.356;19.448;2024-02-26T12:50:48;14.60;;;6.00;;
68273;SDS011;55104;47.356;19.448;2024-02-26T12:53:50;11.27;;;5.00;;
68273;SDS011;55104;47.356;19.448;2024-02-26T12:56:54;12.45;;;5.22;;
68273;SDS011;55104;47.356;19.448;2024-02-26T12:59:57;11.95;;;5.13;;
68273;SDS011;55104;47.356;19.448;2024-02-26T13:03:00;17.25;;;6.00;;
68273;SDS011;55104;47.356;19.448;2024-02-26T13:06:03;11.55;;;5.22;;
68273;SDS011;55104;47.356;19.448;2024-02-26T13:09:07;12.37;;;5.80;;
68273;SDS011;55104;47.356;19.448;2024-02-26T13:12:11;11.65;;;5.38;;
68273;SDS011;55104;47.356;19.448;2024-02-26T13:15:15;13.00;;;5.57;;
68273;SDS011;55104;47.356;19.448;2024-02-26T13:18:19;12.35;;;6.15;;
68273;SDS011;55104;47.356;19.448;2024-02-26T13:21:22;18.35;;;5.95;;
68273;SDS011;55104;47.356;19.448;2024-02-26T13:24:26;12.37;;;5.77;;
68273;SDS011;55104;47.356;19.448;2024-02-26T13:27:29;12.05;;;5.82;;
68273;SDS011;55104;47.356;19.448;2024-02-26T13:30:31;13.02;;;6.30;;
68273;SDS011;55104;47.356;19.448;2024-02-26T13:33:33;12.82;;;5.60;;
68273;SDS011;55104;47.356;19.448;2024-02-26T13:36:36;14.77;;;7.22;;
68273;SDS011;55104;47.356;19.448;2024-02-26T13:39:39;19.50;;;5.80;;
68273;SDS011;55104;47.356;19.448;2024-02-26T13:42:43;12.98;;;6.00;;
68273;SDS011;55104;47.356;19.448;2024-02-26T13:45:45;14.50;;;6.65;;
68273;SDS011;55104;47.356;19.448;2024-02-26T13:48:48;13.35;;;6.30;;
68273;SDS011;55104;47.356;19.448;2024-02-26T13:51:51;12.77;;;6.57;;
68273;SDS011;55104;47.356;19.448;2024-02-26T13:54:53;12.80;;;5.47;;
68273;SDS011;55104;47.356;19.448;2024-02-26T13:57:56;15.38;;;6.70;;
68273;SDS011;55104;47.356;19.448;2024-02-26T14:00:59;11.32;;;6.15;;
68273;SDS011;55104;47.356;19.448;2024-02-26T14:04:01;12.85;;;5.60;;
68273;SDS011;55104;47.356;19.448;2024-02-26T14:07:05;12.02;;;5.53;;
68273;SDS011;55104;47.356;19.448;2024-02-26T14:10:08;13.00;;;6.03;;
68273;SDS011;55104;47.356;19.448;2024-02-26T14:13:13;15.23;;;6.25;;
68273;SDS011;55104;47.356;19.448;2024-02-26T14:16:15;15.90;;;7.47;;
68273;SDS011;55104;47.356;19.448;2024-02-26T14:19:18;15.45;;;6.78;;
68273;SDS011;55104;47.356;19.448;2024-02-26T14:22:20;15.95;;;6.85;;
68273;SDS011;55104;47.356;19.448;2024-02-26T14:25:22;13.13;;;5.83;;
68273;SDS011;55104;47.356;19.448;2024-02-26T14:28:28;12.30;;;6.43;;
68273;SDS011;55104;47.356;19.448;2024-02-26T14:31:37;14.02;;;7.07;;
68273;SDS011;55104;47.356;19.448;2024-02-26T14:34:40;12.23;;;6.25;;
68273;SDS011;55104;47.356;19.448;2024-02-26T14:37:42;12.57;;;6.30;;
68273;SDS011;55104;47.356;19.448;2024-02-26T14:40:49;15.93;;;7.07;;
68273;SDS011;55104;47.356;19.448;2024-02-26T14:43:51;16.90;;;7.68;;
68273;SDS011;55104;47.356;19.448;2024-02-26T14:46:53;17.10;;;7.32;;
68273;SDS011;55104;47.356;19.448;2024-02-26T14:49:56;15.30;;;7.53;;
68273;SDS011;55104;47.356;19.448;2024-02-26T14:52:58;21.50;;;7.55;;
68273;SDS011;55104;47.356;19.448;2024-02-26T14:56:02;13.80;;;7.27;;
68273;SDS011;55104;47.356;19.448;2024-02-26T14:59:04;13.55;;;6.60;;
68273;SDS011;55104;47.356;19.448;2024-02-26T15:02:08;10.98;;;5.13;;
68273;SDS011;55104;47.356;19.448;2024-02-26T15:05:11;13.75;;;6.93;;
68273;SDS011;55104;47.356;19.448;2024-02-26T15:08:13;13.93;;;5.82;;
68273;SDS011;55104;47.356;19.448;2024-02-26T15:11:18;15.53;;;6.40;;
68273;SDS011;55104;47.356;19.448;2024-02-26T15:14:21;13.38;;;6.38;;
68273;SDS011;55104;47.356;19.448;2024-02-26T15:17:23;13.50;;;6.85;;
68273;SDS011;55104;47.356;19.448;2024-02-26T15:20:26;12.57;;;6.32;;
68273;SDS011;55104;47.356;19.448;2024-02-26T15:23:28;15.82;;;6.80;;
68273;SDS011;55104;47.356;19.448;2024-02-26T15:26:31;12.60;;;6.43;;
68273;SDS011;55104;47.356;19.448;2024-02-26T15:29:33;13.73;;;6.40;;
68273;SDS011;55104;47.356;19.448;2024-02-26T15:32:35;11.43;;;6.43;;
68273;SDS011;55104;47.356;19.448;2024-02-26T15:35:40;18.63;;;6.32;;
68273;SDS011;55104;47.356;19.448;2024-02-26T15:38:46;21.70;;;7.28;;
68273;SDS011;55104;47.356;19.448;2024-02-26T15:41:48;16.50;;;6.77;;
68273;SDS011;55104;47.356;19.448;2024-02-26T15:44:51;15.48;;;7.60;;
68273;SDS011;55104;47.356;19.448;2024-02-26T15:47:53;19.05;;;8.75;;
68273;SDS011;55104;47.356;19.448;2024-02-26T15:50:56;15.25;;;6.60;;
68273;SDS011;55104;47.356;19.448;2024-02-26T15:53:58;15.95;;;8.23;;
68273;SDS011;55104;47.356;19.448;2024-02-26T15:57:01;14.67;;;8.23;;
68273;SDS011;55104;47.356;19.448;2024-02-26T16:00:03;16.55;;;8.75;;
68273;SDS011;55104;47.356;19.448;2024-02-26T16:03:12;18.58;;;8.88;;
68273;SDS011;55104;47.356;19.448;2024-02-26T16:09:38;17.75;;;9.18;;
68273;SDS011;55104;47.356;19.448;2024-02-26T16:12:42;26.97;;;12.53;;
68273;SDS011;55104;47.356;19.448;2024-02-26T16:15:50;22.75;;;11.85;;
68273;SDS011;55104;47.356;19.448;2024-02-26T16:19:08;21.77;;;12.43;;
68273;SDS011;55104;47.356;19.448;2024-02-26T16:22:14;18.83;;;9.82;;
68273;SDS011;55104;47.356;19.448;2024-02-26T16:25:16;17.90;;;8.30;;
68273;SDS011;55104;47.356;19.448;2024-02-26T16:28:19;19.67;;;8.87;;
68273;SDS011;55104;47.356;19.448;2024-02-26T16:31:27;17.77;;;9.63;;
68273;SDS011;55104;47.356;19.448;2024-02-26T16:34:30;17.65;;;9.88;;
68273;SDS011;55104;47.356;19.448;2024-02-26T16:37:33;28.80;;;10.20;;
68273;SDS011;55104;47.356;19.448;2024-02-26T16:40:36;20.00;;;9.77;;
68273;SDS011;55104;47.356;19.448;2024-02-26T16:43:38;16.37;;;8.87;;
68273;SDS011;55104;47.356;19.448;2024-02-26T16:46:41;19.33;;;8.98;;
68273;SDS011;55104;47.356;19.448;2024-02-26T16:49:43;15.50;;;8.45;;
68273;SDS011;55104;47.356;19.448;2024-02-26T16:52:46;22.83;;;9.48;;
68273;SDS011;55104;47.356;19.448;2024-02-26T16:55:48;18.58;;;9.80;;
68273;SDS011;55104;47.356;19.448;2024-02-26T16:58:51;26.43;;;12.13;;
68273;SDS011;55104;47.356;19.448;2024-02-26T17:01:53;19.83;;;9.38;;
68273;SDS011;55104;47.356;19.448;2024-02-26T17:05:01;15.98;;;8.60;;
68273;SDS011;55104;47.356;19.448;2024-02-26T17:08:03;20.98;;;7.93;;
68273;SDS011;55104;47.356;19.448;2024-02-26T17:11:05;19.17;;;7.93;;
68273;SDS011;55104;47.356;19.448;2024-02-26T17:14:08;26.07;;;11.40;;
68273;SDS011;55104;47.356;19.448;2024-02-26T17:17:10;21.33;;;10.05;;
68273;SDS011;55104;47.356;19.448;2024-02-26T17:20:12;24.88;;;10.57;;
68273;SDS011;55104;47.356;19.448;2024-02-26T17:23:16;63.55;;;28.90;;
68273;SDS011;55104;47.356;19.448;2024-02-26T17:26:19;51.67;;;23.77;;
68273;SDS011;55104;47.356;19.448;2024-02-26T17:29:22;60.90;;;23.77;;
68273;SDS011;55104;47.356;19.448;2024-02-26T17:32:24;39.85;;;20.63;;
68273;SDS011;55104;47.356;19.448;2024-02-26T17:35:26;42.38;;;21.83;;
68273;SDS011;55104;47.356;19.448;2024-02-26T17:38:28;39.45;;;21.98;;
68273;SDS011;55104;47.356;19.448;2024-02-26T17:41:31;41.53;;;20.65;;
68273;SDS011;55104;47.356;19.448;2024-02-26T17:44:34;48.70;;;21.77;;
68273;SDS011;55104;47.356;19.448;2024-02-26T17:47:38;36.90;;;18.52;;
68273;SDS011;55104;47.356;19.448;2024-02-26T17:50:40;36.03;;;15.60;;
68273;SDS011;55104;47.356;19.448;2024-02-26T17:53:42;29.02;;;14.40;;
68273;SDS011;55104;47.356;19.448;2024-02-26T17:56:44;31.13;;;15.20;;
68273;SDS011;55104;47.356;19.448;2024-02-26T17:59:47;36.60;;;17.13;;
68273;SDS011;55104;47.356;19.448;2024-02-26T18:02:50;43.67;;;19.55;;